sensor_id;sensor_type;location;lat;lon;timestamp;pressure;altitude;pressure_sealevel;temperature;humidity
71903;BME280;59778;50.310;18.780;2022-10-17T00:01:59;99849.38;;;11.51;90.38
71903;BME280;59778;50.310;18.780;2022-10-17T00:17:20;99858.28;;;11.37;91.63
71903;BME280;59778;50.310;18.780;2022-10-17T00:32:41;99865.97;;;11.25;88.31
71903;BME280;59778;50.310;18.780;2022-10-17T00:48:05;99885.34;;;11.14;90.78
71903;BME280;59778;50.310;18.780;2022-10-17T01:03:28;99875.16;;;11.00;89.88
71903;BME280;59778;50.310;18.780;2022-10-17T01:19:03;99880.25;;;10.86;93.09
71903;BME280;59778;50.310;18.780;2022-10-17T01:34:47;99888.38;;;10.78;94.10
71903;BME280;59778;50.310;18.780;2022-10-17T01:50:27;99874.63;;;10.64;92.18
71903;BME280;59778;50.310;18.780;2022-10-17T02:05:50;99891.78;;;10.64;94.72
71903;BME280;59778;50.310;18.780;2022-10-17T02:37:24;99875.28;;;10.42;89.88
71903;BME280;59778;50.310;18.780;2022-10-17T02:52:51;99894.66;;;10.38;92.27
71903;BME280;59778;50.310;18.780;2022-10-17T03:08:15;99917.19;;;10.39;94.30
71903;BME280;59778;50.310;18.780;2022-10-17T03:23:36;99912.03;;;10.20;90.30
71903;BME280;59778;50.310;18.780;2022-10-17T03:38:57;99920.38;;;9.92;91.47
71903;BME280;59778;50.310;18.780;2022-10-17T03:54:18;99924.72;;;9.77;96.84
71903;BME280;59778;50.310;18.780;2022-10-17T04:09:39;99941.31;;;10.08;93.38
71903;BME280;59778;50.310;18.780;2022-10-17T04:25:04;99946.34;;;9.87;91.73
71903;BME280;59778;50.310;18.780;2022-10-17T04:40:25;99959.28;;;10.01;94.53
71903;BME280;59778;50.310;18.780;2022-10-17T04:55:46;99939.59;;;9.99;93.33
71903;BME280;59778;50.310;18.780;2022-10-17T05:11:33;99961.63;;;9.96;91.08
71903;BME280;59778;50.310;18.780;2022-10-17T05:26:54;99978.41;;;9.91;93.75
71903;BME280;59778;50.310;18.780;2022-10-17T05:42:16;99985.53;;;9.92;93.22
71903;BME280;59778;50.310;18.780;2022-10-17T05:57:37;99991.44;;;9.88;95.82
71903;BME280;59778;50.310;18.780;2022-10-17T06:12:58;100017.59;;;10.57;95.55
71903;BME280;59778;50.310;18.780;2022-10-17T06:28:19;100022.66;;;11.18;95.83
71903;BME280;59778;50.310;18.780;2022-10-17T06:43:41;100034.91;;;11.87;96.30
71903;BME280;59778;50.310;18.780;2022-10-17T06:59:03;100059.16;;;12.75;94.07
71903;BME280;59778;50.310;18.780;2022-10-17T07:14:24;100068.13;;;13.68;87.85
71903;BME280;59778;50.310;18.780;2022-10-17T07:29:51;100081.03;;;14.64;84.34
71903;BME280;59778;50.310;18.780;2022-10-17T07:45:12;100080.41;;;15.34;79.52
71903;BME280;59778;50.310;18.780;2022-10-17T08:00:35;100073.72;;;16.28;74.60
71903;BME280;59778;50.310;18.780;2022-10-17T08:16:00;100077.22;;;17.18;71.35
71903;BME280;59778;50.310;18.780;2022-10-17T08:31:22;100074.00;;;17.82;65.46
71903;BME280;59778;50.310;18.780;2022-10-17T08:46:46;100086.06;;;18.60;63.70
71903;BME280;59778;50.310;18.780;2022-10-17T09:18:00;100075.19;;;19.73;57.88
71903;BME280;59778;50.310;18.780;2022-10-17T09:33:28;100076.34;;;19.91;57.84
71903;BME280;59778;50.310;18.780;2022-10-17T09:49:02;100082.53;;;20.11;54.80
71903;BME280;59778;50.310;18.780;2022-10-17T10:04:25;100078.81;;;20.73;53.15
71903;BME280;59778;50.310;18.780;2022-10-17T10:19:50;100081.78;;;21.08;54.02
71903;BME280;59778;50.310;18.780;2022-10-17T10:35:20;100068.38;;;21.59;51.96
71903;BME280;59778;50.310;18.780;2022-10-17T11:06:28;100060.16;;;22.36;50.35
71903;BME280;59778;50.310;18.780;2022-10-17T11:22:01;100044.63;;;22.35;49.06
71903;BME280;59778;50.310;18.780;2022-10-17T11:37:33;100039.91;;;22.82;47.97
71903;BME280;59778;50.310;18.780;2022-10-17T11:53:03;100029.03;;;23.32;46.78
71903;BME280;59778;50.310;18.780;2022-10-17T12:08:47;100030.09;;;23.31;46.24
71903;BME280;59778;50.310;18.780;2022-10-17T12:24:34;100009.13;;;23.46;46.10
71903;BME280;59778;50.310;18.780;2022-10-17T12:39:57;100015.00;;;23.50;46.55
71903;BME280;59778;50.310;18.780;2022-10-17T12:55:18;100003.91;;;23.50;45.69
71903;BME280;59778;50.310;18.780;2022-10-17T13:10:46;99991.91;;;23.33;46.17
71903;BME280;59778;50.310;18.780;2022-10-17T13:26:31;99999.97;;;23.79;45.84
71903;BME280;59778;50.310;18.780;2022-10-17T13:41:53;99979.03;;;23.72;45.50
71903;BME280;59778;50.310;18.780;2022-10-17T14:12:44;99977.19;;;23.04;47.63
71903;BME280;59778;50.310;18.780;2022-10-17T14:43:29;99976.97;;;22.31;51.01
71903;BME280;59778;50.310;18.780;2022-10-17T14:58:51;99977.88;;;21.78;53.62
71903;BME280;59778;50.310;18.780;2022-10-17T15:14:12;99966.56;;;21.27;55.25
71903;BME280;59778;50.310;18.780;2022-10-17T15:29:33;99964.50;;;20.74;58.70
71903;BME280;59778;50.310;18.780;2022-10-17T15:44:55;99955.13;;;20.02;60.80
71903;BME280;59778;50.310;18.780;2022-10-17T16:00:22;99962.03;;;19.30;62.10
71903;BME280;59778;50.310;18.780;2022-10-17T16:15:43;99973.47;;;18.38;64.59
71903;BME280;59778;50.310;18.780;2022-10-17T16:31:22;99990.03;;;18.06;66.92
71903;BME280;59778;50.310;18.780;2022-10-17T16:46:44;99989.97;;;17.20;70.31
71903;BME280;59778;50.310;18.780;2022-10-17T17:02:05;99990.19;;;16.58;72.58
71903;BME280;59778;50.310;18.780;2022-10-17T17:17:27;99987.31;;;16.04;74.35
71903;BME280;59778;50.310;18.780;2022-10-17T17:32:48;99984.41;;;15.56;74.33
71903;BME280;59778;50.310;18.780;2022-10-17T17:48:10;99991.31;;;15.10;78.76
71903;BME280;59778;50.310;18.780;2022-10-17T18:03:32;99991.44;;;14.66;80.49
71903;BME280;59778;50.310;18.780;2022-10-17T18:18:53;99997.88;;;14.29;80.40
71903;BME280;59778;50.310;18.780;2022-10-17T18:34:14;99998.59;;;13.94;83.04
71903;BME280;59778;50.310;18.780;2022-10-17T18:49:35;99995.81;;;13.64;83.17
71903;BME280;59778;50.310;18.780;2022-10-17T19:04:57;100002.09;;;13.28;85.26
71903;BME280;59778;50.310;18.780;2022-10-17T19:20:18;99997.44;;;13.13;84.41
71903;BME280;59778;50.310;18.780;2022-10-17T19:35:39;99991.94;;;12.91;85.10
71903;BME280;59778;50.310;18.780;2022-10-17T19:51:02;100004.00;;;12.65;85.36
71903;BME280;59778;50.310;18.780;2022-10-17T20:06:23;99989.34;;;12.36;85.98
71903;BME280;59778;50.310;18.780;2022-10-17T20:21:45;99989.38;;;12.19;82.98
71903;BME280;59778;50.310;18.780;2022-10-17T20:37:06;99984.34;;;12.00;85.70
71903;BME280;59778;50.310;18.780;2022-10-17T20:52:27;99985.75;;;11.88;87.26
71903;BME280;59778;50.310;18.780;2022-10-17T21:07:48;99988.13;;;11.67;85.71
71903;BME280;59778;50.310;18.780;2022-10-17T21:23:09;99983.53;;;11.59;88.12
71903;BME280;59778;50.310;18.780;2022-10-17T21:38:33;99972.00;;;11.49;88.58
71903;BME280;59778;50.310;18.780;2022-10-17T21:53:56;99969.59;;;11.30;89.06
71903;BME280;59778;50.310;18.780;2022-10-17T22:09:20;99974.88;;;11.15;88.75
71903;BME280;59778;50.310;18.780;2022-10-17T22:24:41;99973.72;;;11.02;89.09
71903;BME280;59778;50.310;18.780;2022-10-17T22:40:04;99966.19;;;10.87;89.23
71903;BME280;59778;50.310;18.780;2022-10-17T22:55:25;99962.25;;;10.66;88.49
71903;BME280;59778;50.310;18.780;2022-10-17T23:10:47;99960.16;;;10.52;88.09
71903;BME280;59778;50.310;18.780;2022-10-17T23:26:10;99948.94;;;10.38;88.77
71903;BME280;59778;50.310;18.780;2022-10-17T23:41:32;99952.94;;;10.18;90.70
71903;BME280;59778;50.310;18.780;2022-10-17T23:56:53;99958.84;;;10.14;88.24
